createdAt,value
2022-11-07T00:02:03.432Z,4.67
2022-11-07T00:05:12.353Z,4.64
2022-11-07T00:08:17.992Z,4.91
2022-11-07T00:11:23.708Z,4.99
2022-11-07T00:14:29.453Z,4.81
2022-11-07T00:17:36.042Z,4.95
2022-11-07T00:20:44.292Z,5.03
2022-11-07T00:23:50.084Z,4.96
2022-11-07T00:26:55.795Z,4.71
2022-11-07T00:30:01.556Z,4.96
2022-11-07T00:33:07.387Z,5.15
2022-11-07T00:36:22.737Z,5.10
2022-11-07T00:39:28.385Z,5.14
2022-11-07T00:42:33.964Z,5.20
2022-11-07T00:45:39.653Z,5.22
2022-11-07T00:48:45.399Z,5.26
2022-11-07T00:51:53.629Z,5.24
2022-11-07T00:54:59.218Z,5.21
2022-11-07T00:58:07.529Z,5.26
2022-11-07T01:01:20.204Z,5.09
2022-11-07T01:04:38.283Z,5.28
2022-11-07T01:07:46.466Z,5.15
2022-11-07T01:10:52.004Z,5.12
2022-11-07T01:13:59.719Z,5.10
2022-11-07T01:17:05.421Z,5.03
2022-11-07T01:20:13.357Z,5.03
2022-11-07T01:23:22.935Z,5.00
2022-11-07T01:26:28.531Z,4.88
2022-11-07T01:29:34.232Z,5.01
2022-11-07T01:32:39.847Z,4.93
2022-11-07T01:35:45.683Z,4.98
2022-11-07T01:38:53.918Z,5.10
2022-11-07T01:42:00.283Z,4.90
2022-11-07T01:45:06.288Z,5.03
2022-11-07T01:48:12.278Z,5.22
2022-11-07T01:51:22.141Z,5.26
2022-11-07T01:54:38.412Z,5.37
2022-11-07T01:57:51.001Z,5.45
2022-11-07T02:00:56.622Z,5.49
2022-11-07T02:04:05.460Z,5.74
2022-11-07T02:07:21.603Z,5.83
2022-11-07T02:10:31.125Z,5.93
2022-11-07T02:13:40.179Z,5.90
2022-11-07T02:16:47.453Z,5.62
2022-11-07T02:19:56.938Z,5.57
2022-11-07T02:23:11.851Z,5.64
2022-11-07T02:26:22.306Z,5.58
2022-11-07T02:29:30.541Z,5.57
2022-11-07T02:32:36.445Z,5.64
2022-11-07T02:35:45.710Z,5.65
2022-11-07T02:38:57.636Z,5.56
2022-11-07T02:42:07.875Z,5.57
2022-11-07T02:45:19.125Z,5.61
2022-11-07T02:48:24.738Z,5.67
2022-11-07T02:51:30.766Z,5.73
2022-11-07T02:54:37.420Z,5.90
2022-11-07T02:57:46.350Z,6.10
2022-11-07T03:00:51.975Z,6.01
2022-11-07T03:03:57.750Z,5.68
2022-11-07T03:07:03.336Z,5.87
2022-11-07T03:10:10.525Z,5.90
2022-11-07T03:13:18.665Z,5.84
2022-11-07T03:16:24.925Z,5.96
2022-11-07T03:19:30.599Z,5.92
2022-11-07T03:22:36.188Z,6.13
2022-11-07T03:25:42.283Z,6.04
2022-11-07T03:28:50.540Z,6.08
2022-11-07T03:31:56.089Z,6.16
2022-11-07T03:35:01.668Z,6.19
2022-11-07T03:38:07.366Z,6.31
2022-11-07T03:41:17.248Z,5.95
2022-11-07T03:44:25.455Z,5.79
2022-11-07T03:47:31.017Z,5.84
2022-11-07T03:50:36.645Z,5.98
2022-11-07T03:53:42.224Z,5.83
2022-11-07T03:56:47.803Z,5.85
2022-11-07T03:59:56.128Z,6.10
2022-11-07T04:03:04.624Z,5.78
2022-11-07T04:06:11.117Z,5.86
2022-11-07T04:09:16.847Z,5.77
2022-11-07T04:12:34.867Z,5.54
2022-11-07T04:15:59.749Z,5.49
2022-11-07T04:19:26.639Z,5.48
2022-11-07T04:22:52.191Z,5.36
2022-11-07T04:26:30.692Z,4.93
2022-11-07T04:29:56.248Z,5.23
2022-11-07T04:33:24.379Z,5.25
2022-11-07T04:36:49.953Z,5.48
2022-11-07T04:40:16.095Z,5.55
2022-11-07T04:43:41.707Z,5.44
2022-11-07T04:47:07.440Z,5.33
2022-11-07T04:50:36.190Z,5.27
2022-11-07T04:54:01.760Z,5.03
2022-11-07T04:57:27.300Z,4.98
2022-11-07T05:00:52.891Z,5.02
2022-11-07T05:04:18.493Z,5.05
2022-11-07T05:07:47.743Z,5.13
2022-11-07T05:11:13.284Z,5.38
2022-11-07T05:14:38.910Z,5.61
2022-11-07T05:18:04.420Z,5.78
2022-11-07T05:21:29.958Z,5.92
2022-11-07T05:24:58.306Z,6.06
2022-11-07T05:28:34.029Z,5.89
2022-11-07T05:32:03.800Z,5.59
2022-11-07T05:35:29.341Z,5.72
2022-11-07T05:38:56.678Z,5.79
2022-11-07T05:42:24.865Z,5.79
2022-11-07T05:45:50.401Z,5.67
2022-11-07T05:49:15.924Z,5.74
2022-11-07T05:52:41.499Z,5.86
2022-11-07T05:56:07.628Z,5.89
2022-11-07T05:59:35.820Z,5.89
2022-11-07T06:03:03.251Z,5.89
2022-11-07T06:06:28.769Z,6.00
2022-11-07T06:09:54.379Z,5.96
2022-11-07T06:13:20.412Z,6.19
2022-11-07T06:16:51.874Z,6.19
2022-11-07T06:20:19.678Z,6.29
2022-11-07T06:23:45.254Z,6.03
2022-11-07T06:27:10.809Z,6.14
2022-11-07T06:30:43.245Z,6.20
2022-11-07T06:34:11.688Z,6.18
2022-11-07T06:37:37.246Z,6.18
2022-11-07T06:41:09.816Z,6.20
2022-11-07T06:44:35.431Z,6.27
2022-11-07T06:48:00.966Z,6.24
2022-11-07T06:51:29.123Z,6.32
2022-11-07T06:54:54.686Z,6.43
2022-11-07T06:58:20.674Z,6.33
2022-11-07T07:01:46.354Z,6.31
2022-11-07T07:05:17.109Z,6.43
2022-11-07T07:08:49.750Z,6.50
2022-11-07T07:12:15.384Z,6.61
2022-11-07T07:15:51.290Z,6.60
2022-11-07T07:19:17.186Z,6.85
2022-11-07T07:22:44.970Z,6.81
2022-11-07T07:26:18.485Z,6.89
2022-11-07T07:29:44.047Z,6.87
2022-11-07T07:33:09.695Z,6.98
2022-11-07T07:36:35.736Z,7.05
2022-11-07T07:40:01.277Z,7.07
2022-11-07T07:43:30.803Z,7.13
2022-11-07T07:46:59.184Z,7.16
2022-11-07T07:50:24.907Z,7.12
2022-11-07T07:53:50.451Z,7.10
2022-11-07T07:57:15.968Z,7.15
2022-11-07T08:00:58.057Z,7.11
2022-11-07T08:04:24.311Z,7.22
2022-11-07T08:07:51.683Z,7.27
2022-11-07T08:11:17.224Z,7.09
2022-11-07T08:14:41.081Z,7.15
2022-11-07T08:17:49.996Z,7.04
2022-11-07T08:20:58.900Z,7.02
2022-11-07T08:24:04.645Z,7.12
2022-11-07T08:27:10.230Z,7.12
2022-11-07T08:30:18.221Z,7.04
2022-11-07T08:33:27.281Z,7.03
2022-11-07T08:36:33.421Z,7.05
2022-11-07T08:39:47.049Z,7.09
2022-11-07T08:42:52.934Z,7.04
2022-11-07T08:45:59.958Z,7.05
2022-11-07T08:49:11.741Z,7.11
2022-11-07T08:52:17.341Z,7.01
2022-11-07T08:55:22.997Z,6.95
2022-11-07T08:58:30.138Z,6.97
2022-11-07T09:01:56.064Z,6.77
2022-11-07T09:05:04.343Z,6.94
2022-11-07T09:08:10.227Z,7.09
2022-11-07T09:11:19.186Z,7.22
2022-11-07T09:14:25.288Z,7.36
2022-11-07T09:17:31.307Z,7.30
2022-11-07T09:20:40.515Z,7.29
2022-11-07T09:23:46.265Z,7.31
2022-11-07T09:26:51.835Z,7.35
2022-11-07T09:29:57.500Z,7.52
2022-11-07T09:33:05.420Z,7.55
2022-11-07T09:36:14.784Z,7.81
2022-11-07T09:39:21.402Z,8.06
2022-11-07T09:42:47.366Z,8.22
2022-11-07T09:46:13.859Z,8.03
2022-11-07T09:49:27.669Z,8.07
2022-11-07T09:52:49.039Z,8.10
2022-11-07T09:56:01.849Z,7.98
2022-11-07T09:59:18.156Z,8.20
2022-11-07T10:02:30.377Z,8.17
2022-11-07T10:05:51.235Z,8.42
2022-11-07T10:09:18.567Z,8.84
2022-11-07T10:12:50.594Z,9.03
2022-11-07T10:16:18.903Z,9.33
2022-11-07T10:19:49.431Z,9.13
2022-11-07T10:23:24.757Z,8.99
2022-11-07T10:26:35.468Z,9.28
2022-11-07T10:29:54.710Z,9.49
2022-11-07T10:33:17.619Z,9.74
2022-11-07T10:36:29.482Z,9.90
2022-11-07T10:39:35.726Z,10.30
2022-11-07T10:42:44.363Z,11.27
2022-11-07T10:45:50.576Z,11.57
2022-11-07T10:49:00.357Z,11.89
2022-11-07T10:52:14.817Z,12.05
2022-11-07T10:55:20.946Z,12.47
2022-11-07T10:58:33.254Z,12.13
2022-11-07T11:01:39.243Z,12.70
2022-11-07T11:04:54.174Z,13.54
2022-11-07T11:08:15.653Z,13.23
2022-11-07T11:11:37.610Z,13.02
2022-11-07T11:14:46.245Z,13.01
2022-11-07T11:18:05.729Z,13.13
2022-11-07T11:21:26.214Z,13.51
2022-11-07T11:24:40.498Z,12.84
2022-11-07T11:27:51.180Z,12.34
2022-11-07T11:31:09.301Z,11.97
2022-11-07T11:34:27.550Z,12.67
2022-11-07T11:37:46.101Z,13.04
2022-11-07T11:41:05.956Z,13.11
2022-11-07T11:44:23.744Z,12.92
2022-11-07T11:47:44.759Z,12.96
2022-11-07T11:51:04.880Z,12.80
2022-11-07T11:54:13.937Z,12.95
2022-11-07T11:57:30.045Z,12.99
2022-11-07T12:00:48.849Z,12.81
2022-11-07T12:04:41.312Z,13.05
2022-11-07T12:08:20.694Z,13.31
2022-11-07T12:11:52.593Z,12.49
2022-11-07T12:15:30.698Z,12.31
2022-11-07T12:18:52.677Z,12.27
2022-11-07T12:22:21.350Z,12.26
2022-11-07T12:25:35.979Z,12.48
2022-11-07T12:29:06.913Z,12.54
2022-11-07T12:32:26.239Z,12.58
2022-11-07T12:35:48.677Z,12.70
2022-11-07T12:39:25.658Z,12.72
2022-11-07T12:42:59.807Z,12.55
2022-11-07T12:46:21.345Z,12.18
2022-11-07T12:50:08.910Z,12.35
2022-11-07T12:53:40.715Z,12.50
2022-11-07T12:56:52.319Z,12.37
2022-11-07T13:00:05.454Z,12.41
2022-11-07T13:04:06.142Z,12.64
2022-11-07T13:07:27.704Z,12.68
2022-11-07T13:10:49.277Z,13.01
2022-11-07T13:14:27.383Z,12.60
2022-11-07T13:17:44.420Z,11.57
2022-11-07T13:20:50.675Z,11.09
2022-11-07T13:23:56.317Z,10.62
2022-11-07T13:27:04.896Z,10.04
2022-11-07T13:30:30.627Z,9.80
2022-11-07T13:33:38.863Z,9.79
2022-11-07T13:36:44.661Z,9.72
2022-11-07T13:39:57.915Z,9.74
2022-11-07T13:43:16.777Z,9.65
2022-11-07T13:46:33.700Z,9.68
2022-11-07T13:49:45.758Z,9.57
2022-11-07T13:53:02.354Z,9.54
2022-11-07T13:56:29.797Z,9.34
2022-11-07T13:59:51.021Z,9.26
2022-11-07T14:03:01.984Z,9.35
2022-11-07T14:06:09.959Z,9.56
2022-11-07T14:09:29.061Z,9.63
2022-11-07T14:12:40.699Z,9.35
2022-11-07T14:15:53.820Z,9.41
2022-11-07T14:19:07.113Z,9.40
2022-11-07T14:22:25.810Z,9.24
2022-11-07T14:25:35.785Z,9.07
2022-11-07T14:28:44.016Z,9.17
2022-11-07T14:31:49.584Z,9.16
2022-11-07T14:34:59.049Z,9.10
2022-11-07T14:38:14.767Z,8.82
2022-11-07T14:41:24.034Z,8.62
2022-11-07T14:44:56.352Z,8.48
2022-11-07T14:48:02.412Z,8.44
2022-11-07T14:51:15.122Z,8.45
2022-11-07T14:54:24.966Z,8.35
2022-11-07T14:57:31.085Z,8.38
2022-11-07T15:00:38.198Z,8.26
2022-11-07T15:03:58.061Z,8.06
2022-11-07T15:07:24.425Z,8.00
2022-11-07T15:10:36.892Z,7.90
2022-11-07T15:13:42.641Z,7.75
2022-11-07T15:16:54.002Z,7.74
2022-11-07T15:20:06.111Z,7.71
2022-11-07T15:23:34.694Z,7.53
2022-11-07T15:26:40.295Z,7.41
2022-11-07T15:29:55.655Z,7.33
2022-11-07T15:33:02.423Z,7.37
2022-11-07T15:36:09.483Z,7.33
2022-11-07T15:39:18.068Z,7.12
2022-11-07T15:42:23.913Z,7.09
2022-11-07T15:45:29.893Z,7.10
2022-11-07T15:48:41.255Z,7.06
2022-11-07T15:51:47.222Z,6.94
2022-11-07T15:54:55.493Z,6.81
2022-11-07T15:58:01.083Z,6.74
2022-11-07T16:01:07.180Z,6.74
2022-11-07T16:04:13.110Z,6.86
2022-11-07T16:07:22.901Z,6.76
2022-11-07T16:10:31.175Z,6.63
2022-11-07T16:13:36.727Z,6.62
2022-11-07T16:16:43.100Z,6.55
2022-11-07T16:19:49.370Z,6.63
2022-11-07T16:22:56.008Z,6.52
2022-11-07T16:26:04.732Z,6.45
2022-11-07T16:29:13.216Z,6.48
2022-11-07T16:32:19.286Z,6.37
2022-11-07T16:35:25.632Z,6.36
2022-11-07T16:38:36.721Z,6.29
2022-11-07T16:41:44.978Z,6.43
2022-11-07T16:44:50.669Z,6.36
2022-11-07T16:47:56.281Z,6.33
2022-11-07T16:51:03.395Z,6.28
2022-11-07T16:54:09.018Z,6.31
2022-11-07T16:57:21.631Z,6.37
2022-11-07T17:00:27.202Z,6.41
2022-11-07T17:03:32.881Z,6.40
2022-11-07T17:06:43.582Z,6.30
2022-11-07T17:09:49.478Z,6.23
2022-11-07T17:12:57.645Z,6.17
2022-11-07T17:16:03.450Z,6.15
2022-11-07T17:19:09.794Z,6.02
2022-11-07T17:22:17.929Z,6.02
2022-11-07T17:25:23.625Z,6.07
2022-11-07T17:28:31.840Z,5.99
2022-11-07T17:31:37.712Z,6.04
2022-11-07T17:34:43.364Z,5.95
2022-11-07T17:37:49.072Z,5.92
2022-11-07T17:40:54.605Z,5.98
2022-11-07T17:44:04.306Z,5.98
2022-11-07T17:47:22.473Z,6.01
2022-11-07T17:50:37.835Z,5.88
2022-11-07T17:53:43.705Z,5.87
2022-11-07T17:56:49.885Z,5.77
2022-11-07T17:59:58.119Z,5.69
2022-11-07T18:03:03.879Z,5.79
2022-11-07T18:06:10.386Z,5.79
2022-11-07T18:09:18.521Z,5.72
2022-11-07T18:12:24.076Z,5.73
2022-11-07T18:15:32.215Z,5.65
2022-11-07T18:18:41.050Z,5.67
2022-11-07T18:21:46.890Z,5.71
2022-11-07T18:24:52.526Z,5.63
2022-11-07T18:27:58.103Z,5.71
2022-11-07T18:31:13.790Z,5.75
2022-11-07T18:34:20.699Z,5.75
2022-11-07T18:37:45.855Z,5.74
2022-11-07T18:41:00.256Z,5.80
2022-11-07T18:44:10.438Z,5.70
2022-11-07T18:47:22.607Z,5.65
2022-11-07T18:50:28.529Z,5.72
2022-11-07T18:53:34.552Z,5.69
2022-11-07T18:56:40.325Z,5.67
2022-11-07T18:59:45.936Z,5.74
2022-11-07T19:02:54.589Z,5.76
2022-11-07T19:06:01.014Z,5.78
2022-11-07T19:09:19.344Z,5.79
2022-11-07T19:12:24.911Z,5.83
2022-11-07T19:15:35.089Z,5.85
2022-11-07T19:18:49.481Z,5.75
2022-11-07T19:22:01.569Z,5.78
2022-11-07T19:25:07.998Z,5.84
2022-11-07T19:28:15.591Z,5.92
2022-11-07T19:31:21.609Z,5.86
2022-11-07T19:34:33.455Z,5.88
2022-11-07T19:37:39.564Z,5.90
2022-11-07T19:40:51.972Z,5.90
2022-11-07T19:43:59.373Z,5.78
2022-11-07T19:47:05.193Z,5.82
2022-11-07T19:50:13.925Z,5.80
2022-11-07T19:52:52.657Z,5.87
2022-11-07T19:55:02.630Z,5.87
2022-11-07T19:57:08.825Z,5.73
2022-11-07T19:59:14.718Z,5.75
2022-11-07T20:01:25.113Z,5.67
2022-11-07T20:03:40.140Z,5.70
2022-11-07T20:06:11.075Z,5.49
2022-11-07T20:08:20.439Z,5.47
2022-11-07T20:10:38.933Z,5.53
2022-11-07T20:12:47.165Z,5.44
2022-11-07T20:14:54.183Z,5.46
2022-11-07T20:17:00.104Z,5.42
2022-11-07T20:19:26.041Z,5.56
2022-11-07T20:21:49.238Z,5.54
2022-11-07T20:24:16.251Z,5.60
2022-11-07T20:26:26.338Z,5.55
2022-11-07T20:28:33.082Z,5.55
2022-11-07T20:30:47.218Z,5.53
2022-11-07T20:32:56.040Z,5.53
2022-11-07T20:35:03.303Z,5.61
2022-11-07T20:37:09.192Z,5.53
2022-11-07T20:39:18.101Z,5.51
2022-11-07T20:41:41.608Z,5.53
2022-11-07T20:43:48.571Z,5.52
2022-11-07T20:45:57.062Z,5.51
2022-11-07T20:48:06.282Z,5.54
2022-11-07T20:50:12.898Z,5.64
2022-11-07T20:52:19.215Z,5.70
2022-11-07T20:54:29.609Z,5.62
2022-11-07T20:56:35.741Z,5.63
2022-11-07T20:58:45.077Z,5.67
2022-11-07T21:00:55.239Z,5.67
2022-11-07T21:03:05.529Z,5.75
2022-11-07T21:05:20.288Z,5.76
2022-11-07T21:07:28.738Z,5.87
2022-11-07T21:09:41.622Z,5.76
2022-11-07T21:11:50.755Z,5.83
2022-11-07T21:13:59.777Z,5.78
2022-11-07T21:16:11.772Z,5.70
2022-11-07T21:18:18.922Z,5.78
2022-11-07T21:20:26.954Z,5.85
2022-11-07T21:22:37.403Z,5.86
2022-11-07T21:24:47.145Z,5.88
2022-11-07T21:26:56.749Z,5.86
2022-11-07T21:29:06.736Z,5.80
2022-11-07T21:31:16.495Z,5.92
2022-11-07T21:33:27.369Z,5.81
2022-11-07T21:35:44.832Z,5.82
2022-11-07T21:37:53.548Z,5.84
2022-11-07T21:40:10.208Z,5.83
2022-11-07T21:42:26.091Z,5.82
2022-11-07T21:44:37.020Z,5.85
2022-11-07T21:46:45.499Z,5.84
2022-11-07T21:48:52.761Z,5.78
2022-11-07T21:51:10.846Z,5.75
2022-11-07T21:53:18.515Z,5.78
2022-11-07T21:55:27.976Z,5.75
2022-11-07T21:57:34.447Z,5.77
2022-11-07T21:59:42.856Z,5.86
2022-11-07T22:01:50.262Z,5.86
2022-11-07T22:04:06.858Z,5.85
2022-11-07T22:06:19.819Z,5.91
2022-11-07T22:08:26.741Z,5.91
2022-11-07T22:10:36.452Z,6.05
2022-11-07T22:12:43.807Z,6.06
2022-11-07T22:14:51.106Z,6.03
2022-11-07T22:16:59.825Z,6.00
2022-11-07T22:19:15.249Z,6.07
2022-11-07T22:21:24.793Z,6.04
2022-11-07T22:23:35.407Z,6.07
2022-11-07T22:25:45.505Z,6.07
2022-11-07T22:27:52.899Z,6.13
2022-11-07T22:29:59.571Z,6.11
2022-11-07T22:32:07.362Z,6.14
2022-11-07T22:34:13.958Z,6.14
2022-11-07T22:36:25.824Z,6.15
2022-11-07T22:38:36.692Z,6.07
2022-11-07T22:40:50.719Z,6.11
2022-11-07T22:42:57.355Z,6.05
2022-11-07T22:45:05.164Z,6.06
2022-11-07T22:47:11.723Z,5.94
2022-11-07T22:49:18.298Z,6.00
2022-11-07T22:51:28.809Z,5.93
2022-11-07T22:53:36.279Z,5.94
2022-11-07T22:55:43.937Z,5.96
2022-11-07T22:57:54.951Z,5.95
2022-11-07T23:00:19.734Z,5.93
2022-11-07T23:02:27.502Z,5.89
2022-11-07T23:04:35.093Z,5.98
2022-11-07T23:06:46.073Z,5.82
2022-11-07T23:08:54.729Z,5.91
2022-11-07T23:13:40.176Z,5.79
2022-11-07T23:15:46.797Z,5.75
2022-11-07T23:17:54.390Z,5.75
2022-11-07T23:20:01.984Z,5.67
2022-11-07T23:22:10.288Z,5.65
2022-11-07T23:24:21.008Z,5.64
2022-11-07T23:26:34.259Z,5.59
2022-11-07T23:28:45.354Z,5.62
2022-11-07T23:30:55.406Z,5.53
2022-11-07T23:33:02.018Z,5.57
2022-11-07T23:35:10.124Z,5.61
2022-11-07T23:37:18.900Z,5.70
2022-11-07T23:39:26.957Z,5.74
2022-11-07T23:41:33.469Z,5.69
2022-11-07T23:43:48.532Z,5.69
2022-11-07T23:46:11.860Z,5.73
2022-11-07T23:48:31.193Z,5.66
2022-11-07T23:50:50.666Z,5.67
2022-11-07T23:52:57.552Z,5.71
2022-11-07T23:55:16.217Z,5.73
2022-11-07T23:57:23.806Z,5.76
2022-11-07T23:59:45.170Z,5.69
